Time;durP1;ratioP1;P1;durP2;ratioP2;P2;SDS_P1;SDS_P2;PMS_P1;PMS_P2;Temp;Humidity;BMP_temperature;BMP_pressure;BME280_temperature;BME280_humidity;BME280_pressure;Samples;Min_cycle;Max_cycle;Signal;HPM_P1;HPM_P2
2022/03/13 00:01:45;;;;;;;;;8.00;8.00;;;;;;;;5028358;28;45490;-70
2022/03/13 00:04:13;;;;;;;;;12.50;10.75;;;;;;;;5027697;28;48380;-69
2022/03/13 00:06:38;;;;;;;;;8.75;8.75;;;;;;;;5025422;28;45476;-69
2022/03/13 00:09:05;;;;;;;;;10.00;9.75;;;;;;;;5032538;28;45389;-70
2022/03/13 00:11:31;;;;;;;;;10.75;8.25;;;;;;;;5026036;28;46168;-70
2022/03/13 00:13:57;;;;;;;;;10.75;8.50;;;;;;;;5010181;28;46391;-69
2022/03/13 00:16:22;;;;;;;;;10.50;10.00;;;;;;;;5015118;28;45520;-69
2022/03/13 00:18:48;;;;;;;;;8.75;7.50;;;;;;;;5013549;28;45553;-68
2022/03/13 00:21:14;;;;;;;;;9.00;9.00;;;;;;;;5004230;28;45546;-69
2022/03/13 00:23:41;;;;;;;;;6.25;6.25;;;;;;;;5012873;28;46440;-70
2022/03/13 00:26:07;;;;;;;;;8.75;8.75;;;;;;;;5022770;28;45515;-69
2022/03/13 00:28:32;;;;;;;;;8.00;8.00;;;;;;;;5026974;28;45438;-69
2022/03/13 00:30:57;;;;;;;;;9.75;9.75;;;;;;;;5024694;28;46679;-69
2022/03/13 00:33:23;;;;;;;;;7.25;7.25;;;;;;;;5014891;28;46293;-69
2022/03/13 00:35:49;;;;;;;;;7.25;7.25;;;;;;;;5034281;28;45358;-70
2022/03/13 00:38:15;;;;;;;;;10.00;9.00;;;;;;;;5026293;28;45873;-70
2022/03/13 00:40:40;;;;;;;;;13.00;9.75;;;;;;;;5026240;28;45491;-70
2022/03/13 00:43:07;;;;;;;;;9.00;8.00;;;;;;;;5027315;28;46174;-70
2022/03/13 00:45:33;;;;;;;;;10.00;8.75;;;;;;;;5017258;28;46056;-70
2022/03/13 00:47:58;;;;;;;;;8.25;8.25;;;;;;;;5034264;28;45373;-71
2022/03/13 00:50:23;;;;;;;;;10.00;8.00;;;;;;;;5030842;28;45580;-71
2022/03/13 00:52:49;;;;;;;;;6.25;6.25;;;;;;;;5029149;28;45306;-70
2022/03/13 00:55:14;;;;;;;;;5.50;5.50;;;;;;;;5026938;28;45730;-71
2022/03/13 00:57:43;;;;;;;;;8.50;8.50;;;;;;;;5029176;28;45452;-71
2022/03/13 01:00:10;;;;;;;;;6.00;5.25;;;;;;;;5032115;28;45506;-69
2022/03/13 01:02:36;;;;;;;;;9.50;8.00;;;;;;;;5029941;28;48755;-70
2022/03/13 01:05:01;;;;;;;;;5.50;5.50;;;;;;;;5026933;28;45543;-70
2022/03/13 01:07:26;;;;;;;;;7.50;7.50;;;;;;;;5027496;28;45392;-71
2022/03/13 01:09:52;;;;;;;;;6.50;6.50;;;;;;;;5028841;28;45389;-71
2022/03/13 01:12:17;;;;;;;;;6.50;6.50;;;;;;;;5028804;28;48653;-71
2022/03/13 01:14:42;;;;;;;;;9.50;7.25;;;;;;;;5032559;28;45467;-71
2022/03/13 01:17:08;;;;;;;;;6.25;6.25;;;;;;;;5023829;28;45443;-69
2022/03/13 01:19:33;;;;;;;;;7.50;6.25;;;;;;;;5028274;28;45552;-68
2022/03/13 01:21:59;;;;;;;;;7.25;7.25;;;;;;;;5028296;28;46031;-71
2022/03/13 01:24:29;;;;;;;;;8.75;8.75;;;;;;;;5029193;28;45646;-70
2022/03/13 01:26:57;;;;;;;;;7.00;5.75;;;;;;;;5025560;28;45531;-69
2022/03/13 01:29:22;;;;;;;;;4.50;4.50;;;;;;;;5031223;28;45219;-69
2022/03/13 01:31:48;;;;;;;;;5.75;5.75;;;;;;;;5027284;28;47501;-69
2022/03/13 01:34:35;;;;;;;;;6.75;6.75;;;;;;;;5029720;28;45381;-69
2022/03/13 01:37:04;;;;;;;;;5.00;5.00;;;;;;;;5029309;28;45410;-69
2022/03/13 01:39:30;;;;;;;;;6.00;6.00;;;;;;;;4997546;28;45525;-68
2022/03/13 01:41:55;;;;;;;;;7.50;5.00;;;;;;;;5033433;28;47664;-68
2022/03/13 01:44:21;;;;;;;;;6.00;6.00;;;;;;;;5026994;28;45406;-71
2022/03/13 01:46:46;;;;;;;;;5.00;5.00;;;;;;;;5028023;28;45369;-70
2022/03/13 01:49:11;;;;;;;;;5.00;5.00;;;;;;;;5026225;28;45437;-69
2022/03/13 01:51:37;;;;;;;;;3.25;3.25;;;;;;;;5026623;28;47543;-70
2022/03/13 01:54:12;;;;;;;;;8.00;6.50;;;;;;;;5034392;28;45359;-70
2022/03/13 01:56:39;;;;;;;;;6.25;5.00;;;;;;;;5033377;28;45493;-69
2022/03/13 01:59:06;;;;;;;;;7.00;6.00;;;;;;;;5023304;28;45412;-69
2022/03/13 02:01:32;;;;;;;;;4.75;4.75;;;;;;;;5027010;28;46096;-70
2022/03/13 02:03:57;;;;;;;;;5.00;5.00;;;;;;;;5028097;28;45358;-71
2022/03/13 02:06:28;;;;;;;;;2.75;2.75;;;;;;;;5029596;28;45401;-70
2022/03/13 02:08:54;;;;;;;;;6.25;5.50;;;;;;;;5029852;28;45399;-71
2022/03/13 02:11:21;;;;;;;;;5.25;4.25;;;;;;;;5026962;28;45496;-69
2022/03/13 02:13:48;;;;;;;;;5.50;5.50;;;;;;;;5025811;28;45460;-70
2022/03/13 02:16:14;;;;;;;;;6.00;5.00;;;;;;;;5025486;28;45357;-69
2022/03/13 02:18:40;;;;;;;;;5.25;5.00;;;;;;;;5010220;28;45426;-71
2022/03/13 02:21:06;;;;;;;;;4.50;4.50;;;;;;;;5031498;28;48580;-70
2022/03/13 02:23:32;;;;;;;;;5.00;4.50;;;;;;;;5028370;28;45523;-71
2022/03/13 02:25:58;;;;;;;;;4.00;4.00;;;;;;;;5025477;28;45489;-70
2022/03/13 02:28:25;;;;;;;;;6.00;4.50;;;;;;;;5026193;28;45542;-69
2022/03/13 02:30:51;;;;;;;;;7.25;4.00;;;;;;;;5026104;28;47966;-70
2022/03/13 02:33:17;;;;;;;;;5.00;5.00;;;;;;;;5030680;28;45257;-70
2022/03/13 02:35:42;;;;;;;;;4.50;4.50;;;;;;;;5033595;28;45432;-70
2022/03/13 02:38:08;;;;;;;;;4.00;4.00;;;;;;;;5017341;28;45381;-69
2022/03/13 02:40:34;;;;;;;;;5.50;5.25;;;;;;;;5014785;28;45716;-70
2022/03/13 02:42:59;;;;;;;;;4.75;4.75;;;;;;;;5006911;28;45913;-71
2022/03/13 02:45:27;;;;;;;;;4.25;4.00;;;;;;;;5013333;28;45464;-70
2022/03/13 02:47:53;;;;;;;;;6.00;6.00;;;;;;;;5034916;28;45571;-71
2022/03/13 02:50:18;;;;;;;;;6.00;5.00;;;;;;;;5024642;28;48256;-71
2022/03/13 02:52:43;;;;;;;;;4.25;3.75;;;;;;;;5025338;28;46159;-70
2022/03/13 02:55:09;;;;;;;;;6.25;5.25;;;;;;;;5026496;28;45370;-66
2022/03/13 02:57:35;;;;;;;;;8.00;3.00;;;;;;;;5026577;28;45267;-70
2022/03/13 03:00:00;;;;;;;;;7.00;7.00;;;;;;;;5032035;28;48718;-70
2022/03/13 03:02:26;;;;;;;;;6.25;5.00;;;;;;;;5026784;28;45533;-71
2022/03/13 03:04:54;;;;;;;;;5.50;5.50;;;;;;;;5017036;28;45313;-70
2022/03/13 03:07:20;;;;;;;;;4.00;4.00;;;;;;;;5026878;28;48118;-70
2022/03/13 03:09:45;;;;;;;;;4.25;3.50;;;;;;;;5029831;28;45627;-71
2022/03/13 03:12:11;;;;;;;;;8.25;7.00;;;;;;;;5033476;28;45513;-69
2022/03/13 03:14:36;;;;;;;;;5.25;5.25;;;;;;;;5033274;28;45732;-69
2022/03/13 03:17:02;;;;;;;;;4.75;4.50;;;;;;;;5029195;28;45520;-69
2022/03/13 03:19:27;;;;;;;;;5.00;5.00;;;;;;;;5030143;28;45924;-70
2022/03/13 03:21:53;;;;;;;;;4.50;4.50;;;;;;;;5029239;28;45339;-69
2022/03/13 03:24:20;;;;;;;;;4.00;4.00;;;;;;;;5033003;28;45271;-69
2022/03/13 03:26:45;;;;;;;;;3.75;3.75;;;;;;;;5029301;28;45377;-67
2022/03/13 03:29:11;;;;;;;;;6.00;6.00;;;;;;;;5021652;28;48312;-69
2022/03/13 03:31:44;;;;;;;;;9.00;9.00;;;;;;;;5020295;28;45811;-68
2022/03/13 03:34:10;;;;;;;;;5.50;5.50;;;;;;;;5016973;28;45388;-67
2022/03/13 03:36:40;;;;;;;;;5.75;4.25;;;;;;;;5027505;28;45366;-68
2022/03/13 03:39:06;;;;;;;;;5.25;4.50;;;;;;;;5032347;28;46237;-68
2022/03/13 03:41:31;;;;;;;;;5.75;5.00;;;;;;;;5031744;28;45554;-68
2022/03/13 03:43:57;;;;;;;;;7.75;6.00;;;;;;;;5029456;28;45584;-66
2022/03/13 03:46:24;;;;;;;;;4.25;4.25;;;;;;;;5021779;28;45371;-68
2022/03/13 03:48:49;;;;;;;;;6.25;6.25;;;;;;;;5013204;28;47726;-67
2022/03/13 03:51:15;;;;;;;;;4.75;4.75;;;;;;;;5011895;28;45543;-69
2022/03/13 03:53:40;;;;;;;;;6.75;6.00;;;;;;;;5018229;28;45393;-70
2022/03/13 03:56:05;;;;;;;;;6.00;6.00;;;;;;;;5026534;28;45350;-69
2022/03/13 03:58:31;;;;;;;;;7.00;5.00;;;;;;;;5014127;28;48566;-68
2022/03/13 04:00:56;;;;;;;;;3.00;1.00;;;;;;;;5002576;28;45684;-69
2022/03/13 04:03:21;;;;;;;;;4.75;4.75;;;;;;;;5005401;28;45568;-69
2022/03/13 04:05:47;;;;;;;;;6.00;4.25;;;;;;;;5005760;28;46028;-69
2022/03/13 04:08:12;;;;;;;;;10.00;5.00;;;;;;;;5007831;28;45883;-69
2022/03/13 04:10:38;;;;;;;;;7.75;7.00;;;;;;;;5002787;28;45437;-69
2022/03/13 04:13:03;;;;;;;;;4.00;4.00;;;;;;;;5009349;28;45421;-69
2022/03/13 04:15:28;;;;;;;;;6.00;6.00;;;;;;;;5012955;28;45619;-69
2022/03/13 04:17:55;;;;;;;;;4.75;4.75;;;;;;;;5014038;28;47419;-66
2022/03/13 04:20:21;;;;;;;;;6.25;5.75;;;;;;;;5012454;28;46156;-68
2022/03/13 04:22:46;;;;;;;;;5.50;5.50;;;;;;;;5014301;28;45551;-69
2022/03/13 04:25:12;;;;;;;;;5.00;5.00;;;;;;;;5014198;28;45503;-68
2022/03/13 04:27:37;;;;;;;;;5.00;5.00;;;;;;;;5012754;28;48103;-66
2022/03/13 04:30:02;;;;;;;;;6.50;6.00;;;;;;;;4999806;28;45676;-67
2022/03/13 04:32:28;;;;;;;;;6.00;5.00;;;;;;;;5013102;28;45865;-69
2022/03/13 04:34:53;;;;;;;;;5.75;4.75;;;;;;;;5013373;28;45417;-69
2022/03/13 04:37:19;;;;;;;;;6.00;6.00;;;;;;;;5012296;28;48620;-69
2022/03/13 04:39:47;;;;;;;;;4.00;4.00;;;;;;;;5014160;28;45504;-69
2022/03/13 04:42:13;;;;;;;;;4.00;4.00;;;;;;;;5012811;28;45388;-69
2022/03/13 04:44:38;;;;;;;;;6.00;6.00;;;;;;;;5014585;28;45370;-68
2022/03/13 04:47:03;;;;;;;;;7.50;4.25;;;;;;;;5012346;28;45779;-69
2022/03/13 04:49:29;;;;;;;;;3.75;3.00;;;;;;;;5013245;28;45492;-69
2022/03/13 04:51:54;;;;;;;;;4.00;4.00;;;;;;;;5013959;28;45619;-68
2022/03/13 04:54:19;;;;;;;;;3.50;3.50;;;;;;;;5014207;28;45589;-69
2022/03/13 04:56:44;;;;;;;;;4.00;3.75;;;;;;;;5012656;28;47501;-68
2022/03/13 04:59:10;;;;;;;;;3.50;3.50;;;;;;;;5012360;28;45495;-69
2022/03/13 05:01:35;;;;;;;;;2.75;2.50;;;;;;;;5013504;28;45457;-67
2022/03/13 05:04:00;;;;;;;;;4.25;3.75;;;;;;;;5009311;28;45469;-68
2022/03/13 05:06:26;;;;;;;;;5.00;5.00;;;;;;;;5007383;28;45935;-68
2022/03/13 05:08:51;;;;;;;;;5.25;5.00;;;;;;;;5014131;28;45434;-68
2022/03/13 05:11:17;;;;;;;;;5.75;5.75;;;;;;;;5011555;28;45557;-68
2022/03/13 05:13:42;;;;;;;;;4.75;4.75;;;;;;;;5013104;28;45659;-68
2022/03/13 05:16:07;;;;;;;;;4.00;4.00;;;;;;;;5010972;28;48734;-69
2022/03/13 05:18:32;;;;;;;;;3.00;2.00;;;;;;;;5013522;28;45362;-68
2022/03/13 05:20:58;;;;;;;;;2.75;2.75;;;;;;;;5013931;28;45373;-67
2022/03/13 05:23:23;;;;;;;;;3.00;3.00;;;;;;;;5011118;28;45386;-66
2022/03/13 05:25:48;;;;;;;;;5.75;4.25;;;;;;;;5011324;28;46090;-67
2022/03/13 05:28:14;;;;;;;;;2.25;2.25;;;;;;;;5012658;28;45350;-65
2022/03/13 05:30:39;;;;;;;;;4.00;4.00;;;;;;;;5009924;28;45719;-68
2022/03/13 05:33:05;;;;;;;;;3.75;3.75;;;;;;;;5014126;28;45497;-69
2022/03/13 05:35:30;;;;;;;;;5.00;3.00;;;;;;;;5012378;28;45526;-67
2022/03/13 05:37:56;;;;;;;;;2.75;2.75;;;;;;;;4996774;28;45445;-69
2022/03/13 05:40:22;;;;;;;;;2.00;2.00;;;;;;;;5011874;28;45498;-70
2022/03/13 05:42:50;;;;;;;;;5.50;4.00;;;;;;;;5011814;28;45550;-69
2022/03/13 05:45:16;;;;;;;;;3.25;3.25;;;;;;;;5012667;28;46653;-68
2022/03/13 05:47:52;;;;;;;;;3.00;3.00;;;;;;;;5014474;28;45552;-68
2022/03/13 05:50:18;;;;;;;;;4.00;4.00;;;;;;;;5012709;28;45445;-69
2022/03/13 05:52:45;;;;;;;;;4.50;4.50;;;;;;;;5011165;28;45543;-68
2022/03/13 05:55:11;;;;;;;;;3.25;3.25;;;;;;;;5012061;28;45607;-68
2022/03/13 05:57:37;;;;;;;;;3.00;3.00;;;;;;;;5008357;28;46137;-68
2022/03/13 06:00:06;;;;;;;;;5.75;4.00;;;;;;;;5015534;28;45413;-68
2022/03/13 06:02:32;;;;;;;;;5.25;4.00;;;;;;;;5014884;28;45438;-68
2022/03/13 06:04:58;;;;;;;;;2.25;2.25;;;;;;;;5011641;28;47185;-69
2022/03/13 06:07:23;;;;;;;;;3.50;3.50;;;;;;;;5011503;28;45824;-68
2022/03/13 06:09:49;;;;;;;;;4.00;3.00;;;;;;;;5012931;28;45529;-68
2022/03/13 06:12:15;;;;;;;;;4.75;3.00;;;;;;;;5012127;28;45435;-65
2022/03/13 06:14:41;;;;;;;;;4.50;3.75;;;;;;;;5014311;28;47382;-69
2022/03/13 06:17:06;;;;;;;;;4.00;3.00;;;;;;;;5006795;28;45611;-68
2022/03/13 06:19:32;;;;;;;;;5.50;4.00;;;;;;;;5010878;28;45321;-68
2022/03/13 06:21:57;;;;;;;;;3.00;3.00;;;;;;;;5012443;28;45346;-69
2022/03/13 06:24:23;;;;;;;;;2.75;2.75;;;;;;;;5010588;28;48712;-69
2022/03/13 06:26:48;;;;;;;;;2.25;2.25;;;;;;;;5013893;28;45442;-68
2022/03/13 06:29:14;;;;;;;;;4.00;3.00;;;;;;;;5010397;28;45441;-68
2022/03/13 06:31:40;;;;;;;;;5.00;3.00;;;;;;;;5010734;28;46262;-69
2022/03/13 06:34:05;;;;;;;;;3.00;3.00;;;;;;;;5010353;28;48042;-69
2022/03/13 06:36:31;;;;;;;;;3.00;3.00;;;;;;;;5010449;28;45547;-70
2022/03/13 06:38:56;;;;;;;;;3.25;2.75;;;;;;;;5012615;28;45409;-69
2022/03/13 06:41:22;;;;;;;;;3.50;2.50;;;;;;;;5010225;28;45894;-68
2022/03/13 06:43:47;;;;;;;;;2.00;2.00;;;;;;;;5009146;28;47554;-70
2022/03/13 06:46:13;;;;;;;;;3.00;3.00;;;;;;;;5010015;28;45494;-70
2022/03/13 06:48:39;;;;;;;;;3.50;2.25;;;;;;;;5011802;28;45610;-69
2022/03/13 06:51:04;;;;;;;;;2.00;2.00;;;;;;;;5011386;28;45378;-69
2022/03/13 06:53:29;;;;;;;;;2.50;2.50;;;;;;;;5009409;28;47488;-69
2022/03/13 06:55:55;;;;;;;;;3.50;2.25;;;;;;;;5008723;28;45935;-69
2022/03/13 06:58:20;;;;;;;;;3.00;3.00;;;;;;;;5011851;28;45312;-70
2022/03/13 07:00:45;;;;;;;;;3.00;2.00;;;;;;;;5010605;28;45592;-69
2022/03/13 07:03:12;;;;;;;;;1.25;1.25;;;;;;;;5010694;28;47542;-70
2022/03/13 07:05:37;;;;;;;;;2.00;2.00;;;;;;;;5014767;28;45294;-68
2022/03/13 07:08:03;;;;;;;;;2.00;2.00;;;;;;;;5011735;28;45758;-69
2022/03/13 07:10:28;;;;;;;;;1.25;1.25;;;;;;;;5010227;28;45391;-68
2022/03/13 07:12:57;;;;;;;;;2.00;2.00;;;;;;;;5011801;28;45746;-69
2022/03/13 07:15:22;;;;;;;;;2.00;2.00;;;;;;;;5009978;28;45385;-68
2022/03/13 07:17:48;;;;;;;;;3.25;2.00;;;;;;;;5013172;28;45517;-70
2022/03/13 07:20:14;;;;;;;;;3.00;3.00;;;;;;;;5010062;28;45453;-70
2022/03/13 07:22:40;;;;;;;;;2.00;2.00;;;;;;;;5011240;28;46478;-68
2022/03/13 07:25:05;;;;;;;;;3.75;2.50;;;;;;;;5010996;28;45629;-70
2022/03/13 07:27:31;;;;;;;;;1.00;1.00;;;;;;;;5011534;28;45350;-70
2022/03/13 07:29:56;;;;;;;;;2.00;2.00;;;;;;;;4995595;28;45346;-71
2022/03/13 07:32:21;;;;;;;;;1.00;1.00;;;;;;;;5009699;28;46283;-70
2022/03/13 07:34:47;;;;;;;;;2.00;2.00;;;;;;;;5010072;28;45464;-69
2022/03/13 07:37:12;;;;;;;;;0.50;0.50;;;;;;;;5009956;28;45445;-69
2022/03/13 07:39:39;;;;;;;;;0.75;0.75;;;;;;;;5011188;28;45382;-70
2022/03/13 07:42:05;;;;;;;;;2.00;2.00;;;;;;;;5010787;28;48405;-69
2022/03/13 07:44:30;;;;;;;;;2.25;1.00;;;;;;;;5010052;28;45958;-71
2022/03/13 07:46:55;;;;;;;;;1.00;1.00;;;;;;;;5009648;28;45802;-71
2022/03/13 07:49:20;;;;;;;;;3.00;1.75;;;;;;;;5009744;28;45641;-69
2022/03/13 07:51:46;;;;;;;;;2.00;2.00;;;;;;;;5007335;28;47647;-71
2022/03/13 07:54:13;;;;;;;;;3.25;2.00;;;;;;;;5011465;28;45446;-71
2022/03/13 07:56:38;;;;;;;;;1.00;1.00;;;;;;;;5015391;28;45504;-70
2022/03/13 07:59:03;;;;;;;;;1.00;1.00;;;;;;;;5012551;28;45585;-71
2022/03/13 08:01:28;;;;;;;;;2.50;2.50;;;;;;;;5012795;28;48464;-70
2022/03/13 08:03:54;;;;;;;;;1.50;1.00;;;;;;;;5013618;28;45362;-70
2022/03/13 08:06:19;;;;;;;;;2.00;2.00;;;;;;;;5013031;28;45697;-71
2022/03/13 08:08:44;;;;;;;;;3.50;1.50;;;;;;;;5016338;28;45378;-70
2022/03/13 08:11:10;;;;;;;;;3.00;3.00;;;;;;;;5012501;28;46671;-69
2022/03/13 08:13:35;;;;;;;;;3.00;3.00;;;;;;;;5013922;28;45365;-70
2022/03/13 08:16:00;;;;;;;;;3.00;3.00;;;;;;;;5014489;28;45293;-72
2022/03/13 08:18:27;;;;;;;;;2.25;2.25;;;;;;;;5019895;28;46023;-70
2022/03/13 08:20:52;;;;;;;;;2.75;2.75;;;;;;;;5020723;28;46775;-71
2022/03/13 08:23:18;;;;;;;;;4.50;4.00;;;;;;;;5014025;28;45874;-71
2022/03/13 08:25:43;;;;;;;;;3.00;2.00;;;;;;;;5014839;28;45381;-71
2022/03/13 08:28:08;;;;;;;;;2.00;2.00;;;;;;;;5015627;28;45514;-70
2022/03/13 08:30:34;;;;;;;;;2.25;2.00;;;;;;;;5013720;28;45483;-69
2022/03/13 08:32:59;;;;;;;;;3.25;2.00;;;;;;;;5017677;28;45421;-70
2022/03/13 08:35:24;;;;;;;;;4.00;2.75;;;;;;;;5014587;28;45417;-72
2022/03/13 08:37:50;;;;;;;;;2.00;2.00;;;;;;;;5014256;28;45397;-71
2022/03/13 08:40:15;;;;;;;;;4.00;4.00;;;;;;;;5013971;28;45750;-71
2022/03/13 08:42:41;;;;;;;;;3.25;3.25;;;;;;;;5012522;28;46310;-71
2022/03/13 08:45:06;;;;;;;;;1.25;1.25;;;;;;;;5013876;28;45449;-70
2022/03/13 08:47:32;;;;;;;;;4.50;3.50;;;;;;;;5014859;28;45453;-71
2022/03/13 08:49:57;;;;;;;;;3.00;3.00;;;;;;;;5011026;28;48288;-72
2022/03/13 08:52:22;;;;;;;;;2.25;2.25;;;;;;;;5013382;28;45538;-69
2022/03/13 08:54:48;;;;;;;;;2.50;2.50;;;;;;;;5014844;28;46010;-70
2022/03/13 08:57:13;;;;;;;;;1.75;1.75;;;;;;;;5016551;28;45580;-70
2022/03/13 08:59:39;;;;;;;;;3.00;3.00;;;;;;;;5016615;28;47533;-69
2022/03/13 09:02:05;;;;;;;;;5.25;3.75;;;;;;;;5013920;28;45370;-67
2022/03/13 09:04:30;;;;;;;;;2.00;2.00;;;;;;;;5011611;28;45592;-70
2022/03/13 09:06:56;;;;;;;;;2.00;2.00;;;;;;;;5010666;28;45386;-69
2022/03/13 09:09:22;;;;;;;;;2.00;2.00;;;;;;;;5012598;28;45347;-70
2022/03/13 09:11:48;;;;;;;;;2.00;2.00;;;;;;;;5013710;28;45390;-70
2022/03/13 09:14:13;;;;;;;;;2.00;2.00;;;;;;;;5012456;28;45487;-71
2022/03/13 09:16:41;;;;;;;;;2.00;2.00;;;;;;;;5011119;28;45770;-70
2022/03/13 09:19:07;;;;;;;;;2.25;2.25;;;;;;;;5011283;28;47450;-70
2022/03/13 09:21:34;;;;;;;;;2.00;2.00;;;;;;;;5012726;28;45481;-71
2022/03/13 09:23:59;;;;;;;;;1.50;1.50;;;;;;;;5013591;28;45414;-69
2022/03/13 09:26:25;;;;;;;;;1.00;1.00;;;;;;;;5011116;28;45558;-71
2022/03/13 09:28:50;;;;;;;;;1.75;1.75;;;;;;;;5011305;28;46256;-70
2022/03/13 09:31:15;;;;;;;;;2.00;1.00;;;;;;;;5011692;28;45226;-72
2022/03/13 09:33:40;;;;;;;;;1.00;1.00;;;;;;;;5013053;28;46490;-71
2022/03/13 09:36:06;;;;;;;;;1.00;1.00;;;;;;;;5014223;28;45812;-71
2022/03/13 09:38:31;;;;;;;;;2.00;2.00;;;;;;;;5013115;28;45755;-71
2022/03/13 09:40:57;;;;;;;;;1.00;1.00;;;;;;;;5011170;28;46194;-70
2022/03/13 09:43:22;;;;;;;;;2.25;2.25;;;;;;;;5012852;28;45482;-68
2022/03/13 09:45:48;;;;;;;;;2.25;2.25;;;;;;;;5012552;28;45425;-69
2022/03/13 09:48:15;;;;;;;;;1.75;1.75;;;;;;;;5011623;28;47068;-68
2022/03/13 09:50:41;;;;;;;;;0.75;0.75;;;;;;;;4996737;28;45724;-66
2022/03/13 09:53:06;;;;;;;;;1.50;1.50;;;;;;;;5009849;28;45596;-67
2022/03/13 09:55:31;;;;;;;;;2.00;2.00;;;;;;;;5010726;28;45437;-69
2022/03/13 09:57:57;;;;;;;;;1.00;1.00;;;;;;;;5010923;28;47501;-68
2022/03/13 10:00:22;;;;;;;;;2.50;2.00;;;;;;;;5012423;28;45413;-68
2022/03/13 10:02:47;;;;;;;;;1.25;1.00;;;;;;;;5012861;28;45461;-68
2022/03/13 10:05:16;;;;;;;;;1.50;1.50;;;;;;;;5012271;28;45514;-68
2022/03/13 10:07:53;;;;;;;;;2.75;1.75;;;;;;;;5010112;28;45403;-67
2022/03/13 10:10:19;;;;;;;;;2.00;2.00;;;;;;;;5011679;28;45578;-69
2022/03/13 10:12:46;;;;;;;;;1.00;1.00;;;;;;;;5010395;28;45428;-69
2022/03/13 10:15:13;;;;;;;;;1.50;1.00;;;;;;;;5012624;28;45361;-67
2022/03/13 10:17:39;;;;;;;;;1.50;1.50;;;;;;;;5011094;28;46600;-68
2022/03/13 10:20:20;;;;;;;;;1.00;1.00;;;;;;;;5010888;28;45337;-71
2022/03/13 10:22:47;;;;;;;;;1.50;1.50;;;;;;;;5010328;28;45361;-70
2022/03/13 10:25:14;;;;;;;;;1.00;1.00;;;;;;;;5010085;28;45433;-70
2022/03/13 10:27:40;;;;;;;;;2.00;2.00;;;;;;;;5011820;28;46561;-69
2022/03/13 10:30:09;;;;;;;;;2.50;2.00;;;;;;;;5011849;28;46333;-71
2022/03/13 10:32:38;;;;;;;;;1.25;1.25;;;;;;;;5011521;28;45424;-69
2022/03/13 10:35:03;;;;;;;;;2.50;2.50;;;;;;;;5011748;28;46445;-70
2022/03/13 10:37:35;;;;;;;;;4.00;3.25;;;;;;;;5010373;28;46226;-69
2022/03/13 10:40:04;;;;;;;;;3.50;3.50;;;;;;;;5010569;28;45512;-71
2022/03/13 10:42:30;;;;;;;;;3.00;3.00;;;;;;;;4996881;28;45453;-71
2022/03/13 10:45:03;;;;;;;;;1.00;1.00;;;;;;;;5014176;28;45649;-70
2022/03/13 10:47:31;;;;;;;;;3.00;3.00;;;;;;;;5012127;28;46488;-69
2022/03/13 10:49:56;;;;;;;;;2.00;2.00;;;;;;;;5013224;28;45477;-72
2022/03/13 10:52:22;;;;;;;;;2.00;2.00;;;;;;;;5010688;28;45538;-71
2022/03/13 10:54:47;;;;;;;;;1.00;1.00;;;;;;;;5012460;28;45357;-73
2022/03/13 10:57:13;;;;;;;;;2.00;2.00;;;;;;;;5010455;28;48361;-71
2022/03/13 10:59:41;;;;;;;;;3.00;3.00;;;;;;;;5013232;28;45474;-71
2022/03/13 11:02:12;;;;;;;;;3.25;3.25;;;;;;;;5011537;28;45434;-68
2022/03/13 11:04:45;;;;;;;;;2.00;2.00;;;;;;;;5009514;28;45505;-69
2022/03/13 11:07:10;;;;;;;;;2.50;2.50;;;;;;;;5010794;28;48842;-71
2022/03/13 11:09:35;;;;;;;;;3.25;3.00;;;;;;;;5011374;28;45423;-70
2022/03/13 11:12:09;;;;;;;;;4.00;4.00;;;;;;;;5013437;28;45300;-71
2022/03/13 11:14:34;;;;;;;;;2.00;2.00;;;;;;;;5012630;28;46032;-69
2022/03/13 11:17:01;;;;;;;;;3.50;3.00;;;;;;;;5009977;28;48211;-70
2022/03/13 11:19:27;;;;;;;;;2.75;2.75;;;;;;;;5010100;28;45930;-70
2022/03/13 11:21:53;;;;;;;;;3.00;3.00;;;;;;;;5010425;28;45458;-70
2022/03/13 11:24:18;;;;;;;;;2.75;2.75;;;;;;;;5008866;28;45416;-71
2022/03/13 11:26:45;;;;;;;;;3.50;2.00;;;;;;;;5004889;28;45824;-71
2022/03/13 11:29:10;;;;;;;;;4.00;4.00;;;;;;;;5008645;28;45560;-70
2022/03/13 11:31:37;;;;;;;;;3.25;3.25;;;;;;;;5012891;28;45589;-71
2022/03/13 11:34:12;;;;;;;;;3.75;3.75;;;;;;;;5013220;28;45585;-71
2022/03/13 11:36:39;;;;;;;;;3.00;3.00;;;;;;;;4998000;28;46492;-68
2022/03/13 11:39:06;;;;;;;;;3.00;3.00;;;;;;;;5014148;28;45530;-71
2022/03/13 11:41:42;;;;;;;;;3.75;3.75;;;;;;;;5011676;28;45497;-67
2022/03/13 11:44:23;;;;;;;;;4.50;4.50;;;;;;;;5019990;28;45606;-70
2022/03/13 11:46:49;;;;;;;;;3.75;2.25;;;;;;;;5019318;28;47657;-72
2022/03/13 11:49:30;;;;;;;;;3.00;2.75;;;;;;;;5030048;28;45607;-71
2022/03/13 11:52:13;;;;;;;;;2.50;2.50;;;;;;;;5027987;28;45502;-70
2022/03/13 11:54:53;;;;;;;;;4.00;2.75;;;;;;;;5027077;28;45392;-68
2022/03/13 11:57:19;;;;;;;;;3.00;1.75;;;;;;;;5019519;28;48256;-70
2022/03/13 11:59:48;;;;;;;;;1.75;1.75;;;;;;;;5013333;28;45692;-69
2022/03/13 12:02:34;;;;;;;;;3.00;3.00;;;;;;;;5027131;28;45918;-68
2022/03/13 12:05:18;;;;;;;;;3.00;3.00;;;;;;;;5028409;28;45648;-70
2022/03/13 12:07:52;;;;;;;;;3.75;3.75;;;;;;;;5003280;28;48522;-71
2022/03/13 12:10:31;;;;;;;;;3.75;3.75;;;;;;;;5013216;28;45380;-70
2022/03/13 12:13:03;;;;;;;;;5.00;3.25;;;;;;;;5004018;28;45543;-70
2022/03/13 12:15:29;;;;;;;;;3.25;3.25;;;;;;;;4997701;28;45459;-70
2022/03/13 12:17:55;;;;;;;;;3.00;3.00;;;;;;;;5034709;28;45888;-72
2022/03/13 12:20:21;;;;;;;;;6.25;6.25;;;;;;;;5027636;28;45485;-71
2022/03/13 12:22:53;;;;;;;;;2.00;2.00;;;;;;;;5025640;28;47030;-70
2022/03/13 12:25:25;;;;;;;;;3.50;3.50;;;;;;;;5027286;28;45591;-70
2022/03/13 12:27:51;;;;;;;;;2.75;2.75;;;;;;;;5027606;28;48460;-72
2022/03/13 12:30:24;;;;;;;;;5.75;5.25;;;;;;;;5031907;28;45391;-70
2022/03/13 12:32:56;;;;;;;;;3.00;3.00;;;;;;;;5023375;28;45423;-70
2022/03/13 12:35:21;;;;;;;;;3.00;3.00;;;;;;;;5024614;28;45783;-70
2022/03/13 12:37:55;;;;;;;;;4.00;4.00;;;;;;;;5026008;28;45786;-71
2022/03/13 12:40:21;;;;;;;;;7.50;6.00;;;;;;;;5026919;28;45335;-69
2022/03/13 12:42:52;;;;;;;;;4.00;4.00;;;;;;;;5028027;28;45472;-71
2022/03/13 12:45:18;;;;;;;;;7.00;5.00;;;;;;;;5030067;28;45326;-68
2022/03/13 12:47:47;;;;;;;;;4.00;3.75;;;;;;;;5031154;28;46548;-67
2022/03/13 12:50:13;;;;;;;;;5.50;5.50;;;;;;;;5028494;28;45473;-70
2022/03/13 12:52:39;;;;;;;;;5.25;3.50;;;;;;;;5026976;28;45390;-69
2022/03/13 12:55:06;;;;;;;;;4.00;4.00;;;;;;;;5025631;28;45653;-69
2022/03/13 12:57:33;;;;;;;;;11.00;7.25;;;;;;;;5027637;28;48602;-70
2022/03/13 12:59:58;;;;;;;;;5.50;4.00;;;;;;;;5028771;28;45428;-68
2022/03/13 13:02:25;;;;;;;;;6.75;6.75;;;;;;;;5027898;28;45391;-70
2022/03/13 13:04:55;;;;;;;;;4.50;4.50;;;;;;;;5029241;28;45504;-68
2022/03/13 13:07:28;;;;;;;;;5.00;5.00;;;;;;;;5028704;28;46708;-69
2022/03/13 13:09:53;;;;;;;;;8.50;7.25;;;;;;;;5026347;28;45485;-69
2022/03/13 13:12:20;;;;;;;;;4.00;4.00;;;;;;;;5029397;28;45378;-70
2022/03/13 13:14:47;;;;;;;;;4.00;4.00;;;;;;;;5049745;28;45431;-71
2022/03/13 13:17:14;;;;;;;;;4.00;4.00;;;;;;;;5027032;28;46948;-71
2022/03/13 13:19:46;;;;;;;;;5.25;4.75;;;;;;;;5027583;28;45839;-71
2022/03/13 13:22:14;;;;;;;;;5.00;5.00;;;;;;;;5026379;28;45409;-72
2022/03/13 13:24:49;;;;;;;;;5.00;4.75;;;;;;;;5026804;28;45511;-73
2022/03/13 13:27:27;;;;;;;;;2.75;2.75;;;;;;;;5029084;28;46325;-70
2022/03/13 13:29:52;;;;;;;;;4.25;4.25;;;;;;;;5032782;28;45379;-69
2022/03/13 13:32:20;;;;;;;;;3.75;3.75;;;;;;;;5025196;28;45402;-69
2022/03/13 13:35:04;;;;;;;;;2.00;2.00;;;;;;;;5025794;28;45392;-69
2022/03/13 13:37:30;;;;;;;;;2.00;2.00;;;;;;;;5026963;28;48603;-71
2022/03/13 13:40:09;;;;;;;;;3.75;3.75;;;;;;;;5026193;28;45584;-70
2022/03/13 13:42:39;;;;;;;;;2.75;2.50;;;;;;;;4995926;28;45443;-69
2022/03/13 13:45:27;;;;;;;;;4.00;4.00;;;;;;;;5031683;28;45734;-70
2022/03/13 13:47:52;;;;;;;;;4.00;4.00;;;;;;;;5032352;28;45892;-70
2022/03/13 13:50:21;;;;;;;;;4.00;3.00;;;;;;;;5025615;28;45967;-69
2022/03/13 13:53:01;;;;;;;;;5.50;4.00;;;;;;;;5024380;28;45379;-68
2022/03/13 13:55:26;;;;;;;;;4.00;4.00;;;;;;;;5025336;28;45433;-70
2022/03/13 13:58:14;;;;;;;;;4.00;3.00;;;;;;;;5016401;28;47069;-73
2022/03/13 14:00:39;;;;;;;;;3.50;3.50;;;;;;;;4996601;28;45414;-69
2022/03/13 14:03:04;;;;;;;;;6.00;6.00;;;;;;;;5032567;28;45921;-68
2022/03/13 14:05:31;;;;;;;;;3.75;3.75;;;;;;;;5027379;28;45884;-68
2022/03/13 14:07:57;;;;;;;;;8.75;7.00;;;;;;;;5025697;28;46604;-68
2022/03/13 14:10:22;;;;;;;;;6.75;5.75;;;;;;;;5025576;28;45795;-67
2022/03/13 14:12:49;;;;;;;;;4.00;4.00;;;;;;;;5026453;28;45486;-68
2022/03/13 14:15:14;;;;;;;;;4.75;4.00;;;;;;;;5030673;28;45453;-70
2022/03/13 14:17:40;;;;;;;;;5.00;4.75;;;;;;;;5030803;28;45432;-68
2022/03/13 14:20:06;;;;;;;;;6.25;5.50;;;;;;;;5027688;28;45407;-69
2022/03/13 14:22:33;;;;;;;;;6.00;4.75;;;;;;;;5026479;28;45443;-65
2022/03/13 14:24:58;;;;;;;;;5.00;4.00;;;;;;;;5024178;28;45824;-68
2022/03/13 14:27:23;;;;;;;;;7.00;7.00;;;;;;;;5019557;28;46944;-67
2022/03/13 14:29:50;;;;;;;;;4.25;4.25;;;;;;;;5031640;28;45346;-68
2022/03/13 14:32:15;;;;;;;;;4.00;4.00;;;;;;;;5028512;28;45320;-68
2022/03/13 14:34:41;;;;;;;;;4.25;4.25;;;;;;;;5019872;28;45650;-67
2022/03/13 14:37:07;;;;;;;;;4.75;4.75;;;;;;;;5009392;28;45573;-66
2022/03/13 14:39:32;;;;;;;;;5.50;4.00;;;;;;;;5007006;28;45449;-67
2022/03/13 14:41:58;;;;;;;;;5.00;4.00;;;;;;;;5023856;28;45787;-68